createdAt,value
2023-01-21T00:02:26.425Z,25.70
2023-01-21T00:04:54.200Z,23.37
2023-01-21T00:07:22.070Z,24.00
2023-01-21T00:09:49.878Z,24.30
2023-01-21T00:12:17.644Z,25.90
2023-01-21T00:14:45.308Z,25.50
2023-01-21T00:17:13.006Z,22.97
2023-01-21T00:19:40.730Z,25.20
2023-01-21T00:22:08.582Z,25.20
2023-01-21T00:24:36.400Z,24.70
2023-01-21T00:27:04.194Z,23.63
2023-01-21T00:29:31.859Z,25.60
2023-01-21T00:31:59.813Z,24.17
2023-01-21T00:34:27.575Z,27.40
2023-01-21T00:36:56.599Z,21.23
2023-01-21T00:39:24.521Z,25.70
2023-01-21T00:41:52.306Z,24.73
2023-01-21T00:44:20.053Z,26.53
2023-01-21T00:46:47.849Z,24.63
2023-01-21T00:49:15.527Z,26.13
2023-01-21T00:51:43.270Z,26.27
2023-01-21T00:54:10.950Z,24.70
2023-01-21T00:56:38.847Z,23.70
2023-01-21T00:59:06.654Z,24.77
2023-01-21T01:01:38.037Z,25.70
2023-01-21T01:04:06.891Z,24.60
2023-01-21T01:06:35.235Z,23.80
2023-01-21T01:09:03.161Z,27.80
2023-01-21T01:11:31.807Z,25.33
2023-01-21T01:14:00.373Z,24.73
2023-01-21T01:16:28.114Z,25.93
2023-01-21T01:18:57.146Z,24.17
2023-01-21T01:21:25.102Z,24.70
2023-01-21T01:23:54.848Z,23.97
2023-01-21T01:26:23.289Z,25.20
2023-01-21T01:28:51.080Z,26.03
2023-01-21T01:31:21.621Z,27.20
2023-01-21T01:33:49.993Z,26.37
2023-01-21T01:36:25.948Z,25.37
2023-01-21T01:38:54.872Z,28.33
2023-01-21T01:41:30.239Z,23.67
2023-01-21T01:44:27.289Z,26.70
2023-01-21T01:47:01.975Z,23.33
2023-01-21T01:49:29.944Z,25.17
2023-01-21T01:52:07.324Z,25.30
2023-01-21T01:54:49.041Z,23.17
2023-01-21T01:57:29.090Z,20.93
2023-01-21T01:59:58.851Z,24.37
2023-01-21T02:02:26.618Z,24.20
2023-01-21T02:05:04.482Z,23.00
2023-01-21T02:07:41.327Z,23.87
2023-01-21T02:10:15.633Z,26.27
2023-01-21T02:12:45.672Z,26.10
2023-01-21T02:15:13.603Z,24.37
2023-01-21T02:18:40.696Z,25.63
2023-01-21T02:21:58.005Z,23.97
2023-01-21T02:25:43.059Z,25.20
2023-01-21T02:29:14.501Z,24.67
2023-01-21T02:33:00.505Z,24.40
2023-01-21T02:35:46.723Z,24.70
2023-01-21T02:38:58.390Z,28.27
2023-01-21T02:41:56.625Z,26.60
2023-01-21T02:45:15.629Z,27.07
2023-01-21T02:48:14.027Z,26.60
2023-01-21T02:50:54.881Z,26.37
2023-01-21T02:53:33.267Z,26.10
2023-01-21T02:56:16.207Z,26.33
2023-01-21T02:59:06.080Z,24.40
2023-01-21T03:02:42.679Z,23.43
2023-01-21T03:05:31.180Z,24.37
2023-01-21T03:08:30.873Z,25.47
2023-01-21T03:11:17.247Z,27.10
2023-01-21T03:14:40.628Z,27.20
2023-01-21T03:17:59.975Z,26.27
2023-01-21T03:20:46.902Z,27.50
2023-01-21T03:23:31.007Z,27.60
2023-01-21T03:26:02.829Z,25.40
2023-01-21T03:28:39.461Z,26.13
2023-01-21T03:31:28.963Z,26.20
2023-01-21T03:34:04.757Z,25.33
2023-01-21T03:37:05.645Z,26.40
2023-01-21T03:40:15.669Z,26.47
2023-01-21T03:42:50.526Z,25.93
2023-01-21T03:45:55.750Z,25.40
2023-01-21T03:49:02.937Z,27.77
2023-01-21T03:51:52.843Z,26.40
2023-01-21T03:54:21.124Z,26.00
2023-01-21T03:56:48.805Z,26.27
2023-01-21T03:59:16.537Z,29.97
2023-01-21T04:01:44.445Z,24.90
2023-01-21T04:04:12.227Z,28.60
2023-01-21T04:06:40.128Z,24.30
2023-01-21T04:09:09.950Z,26.57
2023-01-21T04:11:37.709Z,25.80
2023-01-21T04:14:05.671Z,25.70
2023-01-21T04:16:33.377Z,25.47
2023-01-21T04:19:01.197Z,26.50
2023-01-21T04:21:29.417Z,28.43
2023-01-21T04:23:57.090Z,25.87
2023-01-21T04:26:24.927Z,25.60
2023-01-21T04:28:52.496Z,26.13
2023-01-21T04:31:20.313Z,23.93
2023-01-21T04:33:47.937Z,25.07
2023-01-21T04:36:15.673Z,27.93
2023-01-21T04:38:43.325Z,27.43
2023-01-21T04:41:11.038Z,28.03
2023-01-21T04:43:38.715Z,23.60
2023-01-21T04:46:06.724Z,27.03
2023-01-21T04:48:34.595Z,25.13
2023-01-21T04:51:02.554Z,26.23
2023-01-21T04:53:30.541Z,26.60
2023-01-21T04:55:58.380Z,24.50
2023-01-21T04:58:27.666Z,26.53
2023-01-21T05:00:58.544Z,28.70
2023-01-21T05:03:27.909Z,26.80
2023-01-21T05:05:55.582Z,28.10
2023-01-21T05:08:23.323Z,27.77
2023-01-21T05:10:51.243Z,27.73
2023-01-21T05:13:18.973Z,28.50
2023-01-21T05:15:46.670Z,29.87
2023-01-21T05:18:14.442Z,29.67
2023-01-21T05:20:42.065Z,31.67
2023-01-21T05:23:09.698Z,31.50
2023-01-21T05:25:37.256Z,33.10
2023-01-21T05:28:05.235Z,33.10
2023-01-21T05:30:32.887Z,34.60
2023-01-21T05:33:00.489Z,34.73
2023-01-21T05:35:28.746Z,31.10
2023-01-21T05:37:57.376Z,32.80
2023-01-21T05:40:25.945Z,31.30
2023-01-21T05:42:53.632Z,29.77
2023-01-21T05:45:21.230Z,28.93
2023-01-21T05:47:48.918Z,29.30
2023-01-21T05:50:16.979Z,32.20
2023-01-21T05:52:44.803Z,31.40
2023-01-21T05:55:12.349Z,31.97
2023-01-21T05:57:39.970Z,28.60
2023-01-21T06:00:09.420Z,30.47
2023-01-21T06:02:37.175Z,30.53
2023-01-21T06:05:05.779Z,32.47
2023-01-21T06:07:33.325Z,30.90
2023-01-21T06:10:00.987Z,29.97
2023-01-21T06:12:28.713Z,32.33
2023-01-21T06:14:56.435Z,33.07
2023-01-21T06:17:24.126Z,29.87
2023-01-21T06:19:51.946Z,32.50
2023-01-21T06:22:21.166Z,31.97
2023-01-21T06:24:48.899Z,30.73
2023-01-21T06:27:16.770Z,32.97
2023-01-21T06:29:44.466Z,30.80
2023-01-21T06:32:12.287Z,31.63
2023-01-21T06:34:39.935Z,33.10
2023-01-21T06:37:07.620Z,28.47
2023-01-21T06:39:35.615Z,36.07
2023-01-21T06:42:03.581Z,30.33
2023-01-21T06:44:31.435Z,33.80
2023-01-21T06:47:01.173Z,34.03
2023-01-21T06:49:29.636Z,32.50
2023-01-21T06:51:57.300Z,35.70
2023-01-21T06:54:25.112Z,33.70
2023-01-21T06:56:52.918Z,31.80
2023-01-21T06:59:20.681Z,31.47
2023-01-21T07:01:48.617Z,33.53
2023-01-21T07:04:16.809Z,32.30
2023-01-21T07:06:44.589Z,34.43
2023-01-21T07:09:12.319Z,33.00
2023-01-21T07:11:39.963Z,34.17
2023-01-21T07:14:07.869Z,36.03
2023-01-21T07:16:35.863Z,36.57
2023-01-21T07:19:03.628Z,36.17
2023-01-21T07:21:31.281Z,37.40
2023-01-21T07:24:00.636Z,35.53
2023-01-21T07:26:28.465Z,36.40
2023-01-21T07:29:01.768Z,36.40
2023-01-21T07:31:31.396Z,35.63
2023-01-21T07:33:59.199Z,36.27
2023-01-21T07:36:27.299Z,37.43
2023-01-21T07:38:56.008Z,36.20
2023-01-21T07:41:24.181Z,35.57
2023-01-21T07:43:52.072Z,31.63
2023-01-21T07:46:23.167Z,35.70
2023-01-21T07:48:52.859Z,34.03
2023-01-21T07:51:23.247Z,36.70
2023-01-21T07:53:51.123Z,32.90
2023-01-21T07:56:20.404Z,33.10
2023-01-21T07:58:48.415Z,32.73
2023-01-21T08:01:16.196Z,31.90
2023-01-21T08:03:49.323Z,36.70
2023-01-21T08:06:17.849Z,32.10
2023-01-21T08:08:45.508Z,31.20
2023-01-21T08:11:13.123Z,31.20
2023-01-21T08:13:41.128Z,29.23
2023-01-21T08:16:11.785Z,30.93
2023-01-21T08:18:40.300Z,28.47
2023-01-21T08:21:08.091Z,28.20
2023-01-21T08:23:35.956Z,30.60
2023-01-21T08:26:07.299Z,28.50
2023-01-21T08:28:35.440Z,25.67
2023-01-21T08:31:13.501Z,28.47
2023-01-21T08:33:41.914Z,30.07
2023-01-21T08:36:10.306Z,26.33
2023-01-21T08:38:38.511Z,29.10
2023-01-21T08:41:06.647Z,27.90
2023-01-21T08:43:34.305Z,25.13
2023-01-21T08:46:02.127Z,26.43
2023-01-21T08:48:30.935Z,30.43
2023-01-21T08:51:02.009Z,27.93
2023-01-21T08:53:29.749Z,27.97
2023-01-21T08:56:04.844Z,28.80
2023-01-21T08:58:33.777Z,24.67
2023-01-21T09:01:11.109Z,27.43
2023-01-21T09:03:39.588Z,29.30
2023-01-21T09:06:08.984Z,29.20
2023-01-21T09:08:36.981Z,26.47
2023-01-21T09:11:07.195Z,28.13
2023-01-21T09:13:40.046Z,27.40
2023-01-21T09:16:17.963Z,29.23
2023-01-21T09:18:47.653Z,28.67
2023-01-21T09:21:17.120Z,28.07
2023-01-21T09:23:45.041Z,29.37
2023-01-21T09:26:25.373Z,24.30
2023-01-21T09:29:01.476Z,23.07
2023-01-21T09:31:32.095Z,24.63
2023-01-21T09:34:05.549Z,23.80
2023-01-21T09:36:35.804Z,23.83
2023-01-21T09:39:05.193Z,25.20
2023-01-21T09:41:46.066Z,26.03
2023-01-21T09:44:45.012Z,26.27
2023-01-21T09:47:27.871Z,28.40
2023-01-21T09:50:17.462Z,31.27
2023-01-21T09:53:01.433Z,26.23
2023-01-21T09:55:50.217Z,26.57
2023-01-21T09:58:51.766Z,31.80
2023-01-21T10:01:38.863Z,28.40
2023-01-21T10:04:48.904Z,28.43
2023-01-21T10:07:34.332Z,27.33
2023-01-21T10:10:49.661Z,26.03
2023-01-21T10:14:50.348Z,27.53
2023-01-21T10:17:54.027Z,27.30
2023-01-21T10:20:50.879Z,29.00
2023-01-21T10:23:57.608Z,28.70
2023-01-21T10:26:29.965Z,30.40
2023-01-21T10:28:58.077Z,27.93
2023-01-21T10:31:33.461Z,27.77
2023-01-21T10:34:02.084Z,26.43
2023-01-21T10:37:05.460Z,26.13
2023-01-21T10:39:41.796Z,29.77
2023-01-21T10:43:02.762Z,30.40
2023-01-21T10:46:15.132Z,27.47
2023-01-21T10:48:57.673Z,26.43
2023-01-21T10:52:14.535Z,26.23
2023-01-21T10:55:20.347Z,24.83
2023-01-21T10:58:38.294Z,20.80
2023-01-21T11:01:42.353Z,18.70
2023-01-21T11:04:24.141Z,22.27
2023-01-21T11:07:12.010Z,22.57
2023-01-21T11:09:48.085Z,22.07
2023-01-21T11:12:24.043Z,21.30
2023-01-21T11:15:07.804Z,20.57
2023-01-21T11:17:44.203Z,21.57
2023-01-21T11:20:43.363Z,19.47
2023-01-21T11:23:35.479Z,21.50
2023-01-21T11:26:20.428Z,21.40
2023-01-21T11:28:48.357Z,20.13
2023-01-21T11:31:27.827Z,19.53
2023-01-21T11:34:05.919Z,20.17
2023-01-21T11:36:34.607Z,17.10
2023-01-21T11:39:09.569Z,16.53
2023-01-21T11:41:37.647Z,16.90
2023-01-21T11:44:22.215Z,15.30
2023-01-21T11:46:51.388Z,16.70
2023-01-21T11:49:33.334Z,20.30
2023-01-21T11:52:20.937Z,16.87
2023-01-21T11:54:49.188Z,20.30
2023-01-21T11:57:33.670Z,17.67
2023-01-21T12:00:23.047Z,19.83
2023-01-21T12:03:05.805Z,17.63
2023-01-21T12:05:45.610Z,17.10
2023-01-21T12:08:32.782Z,17.77
2023-01-21T12:11:07.215Z,15.77
2023-01-21T12:14:37.005Z,17.73
2023-01-21T12:17:46.659Z,17.60
2023-01-21T12:20:42.093Z,20.30
2023-01-21T12:23:33.865Z,15.97
2023-01-21T12:26:48.060Z,17.00
2023-01-21T12:30:04.452Z,22.47
2023-01-21T12:33:33.717Z,19.67
2023-01-21T12:36:27.227Z,14.90
2023-01-21T12:39:34.450Z,13.70
2023-01-21T12:42:37.755Z,17.00
2023-01-21T12:45:31.033Z,15.50
2023-01-21T12:48:21.930Z,15.07
2023-01-21T12:51:05.395Z,15.40
2023-01-21T12:54:21.905Z,15.27
2023-01-21T12:57:29.388Z,13.10
2023-01-21T13:00:34.946Z,12.77
2023-01-21T13:04:09.555Z,14.63
2023-01-21T13:06:57.685Z,13.63
2023-01-21T13:10:19.988Z,15.00
2023-01-21T13:13:36.175Z,15.20
2023-01-21T13:16:11.304Z,14.77
2023-01-21T13:18:45.751Z,14.50
2023-01-21T13:22:31.638Z,15.73
2023-01-21T13:25:43.815Z,15.50
2023-01-21T13:28:48.210Z,16.10
2023-01-21T13:31:20.997Z,15.57
2023-01-21T13:35:08.443Z,14.67
2023-01-21T13:38:50.557Z,16.70
2023-01-21T13:42:20.994Z,17.20
2023-01-21T13:45:24.832Z,13.53
2023-01-21T13:48:54.407Z,15.80
2023-01-21T13:52:08.338Z,15.40
2023-01-21T13:55:51.706Z,16.17
2023-01-21T13:59:16.884Z,14.70
2023-01-21T14:02:11.627Z,15.50
2023-01-21T14:05:43.927Z,16.50
2023-01-21T14:09:02.939Z,16.20
2023-01-21T14:11:50.744Z,14.37
2023-01-21T14:14:55.210Z,14.20
2023-01-21T14:18:03.404Z,13.60
2023-01-21T14:21:21.056Z,11.50
2023-01-21T14:24:30.185Z,16.10
2023-01-21T14:27:59.255Z,15.30
2023-01-21T14:30:59.557Z,14.20
2023-01-21T14:34:03.687Z,16.87
2023-01-21T14:37:16.302Z,16.00
2023-01-21T14:40:16.465Z,15.50
2023-01-21T14:42:53.280Z,15.93
2023-01-21T14:45:50.241Z,13.77
2023-01-21T14:49:08.928Z,12.83
2023-01-21T14:51:50.094Z,15.90
2023-01-21T14:54:27.889Z,15.40
2023-01-21T14:57:18.215Z,13.60
2023-01-21T14:59:49.538Z,18.23
2023-01-21T15:02:42.132Z,16.60
2023-01-21T15:05:36.652Z,16.60
2023-01-21T15:08:29.821Z,12.70
2023-01-21T15:11:20.429Z,12.60
2023-01-21T15:14:37.189Z,19.10
2023-01-21T15:17:26.401Z,16.20
2023-01-21T15:19:58.839Z,17.10
2023-01-21T15:22:41.691Z,16.23
2023-01-21T15:25:15.645Z,15.67
2023-01-21T15:28:25.196Z,15.87
2023-01-21T15:31:05.925Z,14.10
2023-01-21T15:33:46.578Z,13.83
2023-01-21T15:36:34.820Z,15.67
2023-01-21T15:39:34.278Z,10.67
2023-01-21T15:42:41.330Z,13.43
2023-01-21T15:45:30.556Z,14.07
2023-01-21T15:48:41.992Z,14.60
2023-01-21T15:52:08.974Z,14.10
2023-01-21T15:55:00.756Z,14.13
2023-01-21T15:58:35.260Z,14.20
2023-01-21T16:01:32.493Z,12.63
2023-01-21T16:04:30.761Z,13.70
2023-01-21T16:07:32.487Z,13.53
2023-01-21T16:10:15.717Z,13.37
2023-01-21T16:13:20.873Z,16.03
2023-01-21T16:16:56.485Z,11.63
2023-01-21T16:19:37.357Z,14.43
2023-01-21T16:22:13.173Z,12.63
2023-01-21T16:24:59.642Z,11.53
2023-01-21T16:27:32.153Z,12.60
2023-01-21T16:30:35.224Z,13.30
2023-01-21T16:33:16.745Z,12.70
2023-01-21T16:36:08.828Z,13.90
2023-01-21T16:38:38.454Z,11.33
2023-01-21T16:41:14.955Z,15.67
2023-01-21T16:44:04.560Z,14.13
2023-01-21T16:46:40.485Z,14.77
2023-01-21T16:49:19.137Z,16.73
2023-01-21T16:52:05.576Z,13.37
2023-01-21T16:54:34.144Z,16.50
2023-01-21T16:57:17.424Z,15.00
2023-01-21T16:59:52.350Z,13.33
2023-01-21T17:02:34.826Z,13.23
2023-01-21T17:05:06.022Z,11.93
2023-01-21T17:08:12.215Z,11.63
2023-01-21T17:11:00.734Z,13.80
2023-01-21T17:13:31.686Z,13.80
2023-01-21T17:16:04.416Z,14.07
2023-01-21T17:18:43.132Z,15.17
2023-01-21T17:21:28.606Z,15.30
2023-01-21T17:24:45.668Z,14.07
2023-01-21T17:27:21.930Z,14.63
2023-01-21T17:29:50.316Z,14.67
2023-01-21T17:32:38.313Z,13.90
2023-01-21T17:35:19.940Z,15.90
2023-01-21T17:37:59.354Z,15.23
2023-01-21T17:41:03.820Z,13.90
2023-01-21T17:43:32.462Z,15.20
2023-01-21T17:46:00.292Z,14.80
2023-01-21T17:48:36.517Z,15.17
2023-01-21T17:51:20.878Z,16.20
2023-01-21T17:54:06.050Z,15.30
2023-01-21T17:56:57.240Z,15.80
2023-01-21T17:59:45.838Z,16.30
2023-01-21T18:02:18.135Z,16.90
2023-01-21T18:04:48.462Z,15.93
2023-01-21T18:07:30.112Z,17.67
2023-01-21T18:10:02.845Z,16.43
2023-01-21T18:12:30.820Z,15.37
2023-01-21T18:14:58.900Z,15.70
2023-01-21T18:17:26.914Z,16.17
2023-01-21T18:19:55.961Z,16.80
2023-01-21T18:22:36.081Z,15.83
2023-01-21T18:25:06.713Z,16.53
2023-01-21T18:27:36.025Z,16.10
2023-01-21T18:30:14.599Z,15.30
2023-01-21T18:32:43.127Z,14.30
2023-01-21T18:35:15.312Z,17.77
2023-01-21T18:37:43.796Z,16.67
2023-01-21T18:40:21.644Z,17.57
2023-01-21T18:42:55.659Z,18.37
2023-01-21T18:45:29.009Z,16.47
2023-01-21T18:47:58.601Z,15.97
2023-01-21T18:50:30.617Z,17.73
2023-01-21T18:52:58.535Z,15.60
2023-01-21T18:55:30.076Z,17.60
2023-01-21T18:57:58.339Z,17.67
2023-01-21T19:00:33.314Z,16.90
2023-01-21T19:03:01.802Z,17.23
2023-01-21T19:05:41.891Z,19.27
2023-01-21T19:08:24.896Z,21.80
2023-01-21T19:10:52.795Z,18.77
2023-01-21T19:13:21.277Z,22.00
2023-01-21T19:15:50.232Z,21.13
2023-01-21T19:18:18.065Z,19.10
2023-01-21T19:20:45.774Z,21.10
2023-01-21T19:23:18.945Z,21.53
2023-01-21T19:25:59.502Z,19.80
2023-01-21T19:28:27.805Z,19.33
2023-01-21T19:30:55.896Z,20.77
2023-01-21T19:33:26.010Z,22.70
2023-01-21T19:36:20.546Z,23.40
2023-01-21T19:38:57.029Z,25.30
2023-01-21T19:41:25.708Z,23.50
2023-01-21T19:43:53.594Z,23.50
2023-01-21T19:46:24.028Z,25.00
2023-01-21T19:48:58.652Z,25.20
2023-01-21T19:51:32.249Z,21.63
2023-01-21T19:54:12.067Z,27.53
2023-01-21T19:56:46.607Z,26.37
2023-01-21T19:59:20.700Z,25.87
2023-01-21T20:01:53.353Z,24.17
2023-01-21T20:04:26.288Z,26.67
2023-01-21T20:06:54.520Z,24.20
2023-01-21T20:09:22.633Z,24.70
2023-01-21T20:11:50.323Z,27.47
2023-01-21T20:14:18.336Z,27.27
2023-01-21T20:16:55.088Z,26.47
2023-01-21T20:19:23.667Z,27.97
2023-01-21T20:22:02.058Z,26.57
2023-01-21T20:24:34.191Z,27.57
2023-01-21T20:27:09.561Z,25.60
2023-01-21T20:29:55.579Z,28.30
2023-01-21T20:32:40.800Z,29.93
2023-01-21T20:35:22.017Z,30.00
2023-01-21T20:37:57.249Z,28.30
2023-01-21T20:40:32.119Z,27.20
2023-01-21T20:43:01.110Z,27.03
2023-01-21T20:45:44.118Z,28.93
2023-01-21T20:48:33.120Z,28.53
2023-01-21T20:51:03.997Z,30.63
2023-01-21T20:53:34.435Z,27.80
2023-01-21T20:56:42.113Z,27.27
2023-01-21T20:59:11.671Z,26.27
2023-01-21T21:01:41.905Z,26.53
2023-01-21T21:04:11.272Z,27.43
2023-01-21T21:06:41.111Z,26.10
2023-01-21T21:09:14.798Z,28.90
2023-01-21T21:11:45.956Z,26.47
2023-01-21T21:14:18.433Z,27.60
2023-01-21T21:16:48.335Z,29.00
2023-01-21T21:19:18.566Z,27.97
2023-01-21T21:21:53.209Z,25.90
2023-01-21T21:24:26.575Z,26.03
2023-01-21T21:26:55.162Z,26.27
2023-01-21T21:29:23.594Z,26.00
2023-01-21T21:31:52.346Z,24.40
2023-01-21T21:34:41.181Z,24.20
2023-01-21T21:37:22.863Z,25.73
2023-01-21T21:40:14.729Z,22.10
2023-01-21T21:43:08.880Z,21.87
2023-01-21T21:45:41.175Z,21.53
2023-01-21T21:48:45.311Z,26.10
2023-01-21T21:51:18.115Z,23.00
2023-01-21T21:53:49.435Z,24.33
2023-01-21T21:56:23.964Z,24.20
2023-01-21T21:58:53.799Z,22.27
2023-01-21T22:01:30.495Z,24.43
2023-01-21T22:04:04.808Z,24.77
2023-01-21T22:06:37.358Z,24.60
2023-01-21T22:09:07.625Z,22.53
2023-01-21T22:11:47.028Z,24.70
2023-01-21T22:14:19.211Z,26.30
2023-01-21T22:16:56.255Z,23.27
2023-01-21T22:19:27.635Z,23.00
2023-01-21T22:22:06.272Z,24.97
2023-01-21T22:24:35.727Z,22.70
2023-01-21T22:27:09.574Z,25.67
2023-01-21T22:29:38.123Z,24.80
2023-01-21T22:32:08.244Z,23.23
2023-01-21T22:34:37.705Z,22.50
2023-01-21T22:37:06.983Z,26.70
2023-01-21T22:39:36.003Z,24.77
2023-01-21T22:42:10.909Z,26.60
2023-01-21T22:44:39.987Z,25.90
2023-01-21T22:47:09.945Z,25.63
2023-01-21T22:49:40.771Z,25.90
2023-01-21T22:52:10.061Z,25.27
2023-01-21T22:54:38.555Z,27.50
2023-01-21T22:57:07.931Z,29.70
2023-01-21T22:59:37.436Z,28.77
2023-01-21T23:02:25.968Z,26.40
2023-01-21T23:04:58.851Z,25.33
2023-01-21T23:07:38.936Z,24.20
2023-01-21T23:10:12.567Z,26.63
2023-01-21T23:12:49.506Z,27.07
2023-01-21T23:15:24.783Z,24.90
2023-01-21T23:17:55.188Z,24.47
2023-01-21T23:20:29.464Z,24.90
2023-01-21T23:22:59.531Z,24.03
2023-01-21T23:25:33.603Z,23.17
2023-01-21T23:28:04.301Z,23.87
2023-01-21T23:30:36.780Z,22.00
2023-01-21T23:33:08.014Z,22.17
2023-01-21T23:35:40.313Z,22.23
2023-01-21T23:38:10.035Z,20.70
2023-01-21T23:40:40.555Z,20.83
2023-01-21T23:43:09.514Z,21.83
2023-01-21T23:45:40.579Z,18.93
2023-01-21T23:48:09.210Z,22.43
2023-01-21T23:50:37.165Z,22.40
2023-01-21T23:53:10.776Z,22.43
2023-01-21T23:55:38.689Z,20.87
2023-01-21T23:58:06.421Z,21.63
